createdAt,value
2022-11-24T00:02:11.961Z,100295.41
2022-11-24T00:04:39.953Z,100303.25
2022-11-24T00:07:09.399Z,100304.13
2022-11-24T00:09:37.344Z,100306.66
2022-11-24T00:12:05.637Z,100300.53
2022-11-24T00:14:33.762Z,100297.81
2022-11-24T00:17:01.815Z,100296.84
2022-11-24T00:19:29.800Z,100302.88
2022-11-24T00:21:57.729Z,100300.19
2022-11-24T00:24:26.992Z,100306.28
2022-11-24T00:26:55.066Z,100301.84
2022-11-24T00:29:22.964Z,100300.94
2022-11-24T00:31:50.838Z,100300.88
2022-11-24T00:34:18.760Z,100301.75
2022-11-24T00:36:46.617Z,100306.91
2022-11-24T00:39:15.402Z,100310.47
2022-11-24T00:41:44.656Z,100313.22
2022-11-24T00:44:12.514Z,100312.47
2022-11-24T00:46:40.572Z,100313.38
2022-11-24T00:49:08.730Z,100320.41
2022-11-24T00:51:36.585Z,100315.25
2022-11-24T00:54:04.783Z,100312.69
2022-11-24T00:56:32.694Z,100323.19
2022-11-24T00:59:01.990Z,100325.03
2022-11-24T01:01:30.979Z,100322.44
2022-11-24T01:04:01.318Z,100325.13
2022-11-24T01:06:29.835Z,100321.66
2022-11-24T01:08:57.880Z,100327.78
2022-11-24T01:11:26.762Z,100333.03
2022-11-24T01:13:55.560Z,100339.22
2022-11-24T01:16:26.158Z,100338.34
2022-11-24T01:18:54.967Z,100335.72
2022-11-24T01:21:23.132Z,100335.72
2022-11-24T01:23:51.102Z,100334.00
2022-11-24T01:26:19.835Z,100337.56
2022-11-24T01:28:48.083Z,100340.19
2022-11-24T01:31:16.237Z,100341.06
2022-11-24T01:33:45.654Z,100346.31
2022-11-24T01:36:13.682Z,100339.34
2022-11-24T01:38:41.572Z,100349.84
2022-11-24T01:41:11.510Z,100353.41
2022-11-24T01:43:39.446Z,100349.00
2022-11-24T01:46:10.841Z,100359.56
2022-11-24T01:48:40.033Z,100356.94
2022-11-24T01:51:11.301Z,100356.94
2022-11-24T01:53:39.700Z,100362.22
2022-11-24T01:56:08.220Z,100362.22
2022-11-24T01:58:36.099Z,100361.38
2022-11-24T02:01:04.064Z,100364.84
2022-11-24T02:03:34.394Z,100369.25
2022-11-24T02:06:03.666Z,100365.78
2022-11-24T02:08:34.547Z,100363.03
2022-11-24T02:11:03.279Z,100364.81
2022-11-24T02:13:31.159Z,100372.69
2022-11-24T02:15:59.078Z,100372.72
2022-11-24T02:18:27.035Z,100377.06
2022-11-24T02:20:54.896Z,100377.06
2022-11-24T02:23:24.633Z,100372.69
2022-11-24T02:25:57.595Z,100376.22
2022-11-24T02:28:27.593Z,100371.81
2022-11-24T02:30:55.545Z,100384.09
2022-11-24T02:33:25.243Z,100380.56
2022-11-24T02:35:53.154Z,100379.66
2022-11-24T02:38:29.250Z,100386.72
2022-11-24T02:40:57.134Z,100381.47
2022-11-24T02:43:26.350Z,100391.97
2022-11-24T02:45:54.332Z,100389.34
2022-11-24T02:48:22.236Z,100384.97
2022-11-24T02:50:50.150Z,100391.97
2022-11-24T02:53:18.109Z,100392.88
2022-11-24T02:55:45.993Z,100392.88
2022-11-24T02:58:14.867Z,100403.34
2022-11-24T03:00:44.230Z,100397.31
2022-11-24T03:03:12.203Z,100400.78
2022-11-24T03:05:40.184Z,100398.22
2022-11-24T03:08:08.113Z,100401.75
2022-11-24T03:10:36.026Z,100420.94
2022-11-24T03:13:03.912Z,100419.22
2022-11-24T03:15:31.855Z,100420.13
2022-11-24T03:18:01.155Z,100425.38
2022-11-24T03:20:29.179Z,100431.50
2022-11-24T03:22:57.750Z,100427.09
2022-11-24T03:25:25.619Z,100434.97
2022-11-24T03:27:53.529Z,100428.81
2022-11-24T03:30:21.672Z,100434.91
2022-11-24T03:32:49.740Z,100430.53
2022-11-24T03:35:19.067Z,100428.72
2022-11-24T03:37:46.936Z,100427.84
2022-11-24T03:40:14.802Z,100433.97
2022-11-24T03:42:42.757Z,100440.09
2022-11-24T03:45:38.145Z,100439.22
2022-11-24T03:47:59.124Z,100444.47
2022-11-24T03:50:28.395Z,100448.84
2022-11-24T03:52:56.254Z,100452.41
2022-11-24T03:55:24.167Z,100460.22
2022-11-24T03:57:52.092Z,100468.16
2022-11-24T04:00:20.178Z,100469.03
2022-11-24T04:02:48.744Z,100462.03
2022-11-24T04:05:16.744Z,100462.91
2022-11-24T04:07:46.023Z,100468.97
2022-11-24T04:10:14.553Z,100471.59
2022-11-24T04:12:44.019Z,100480.34
2022-11-24T04:15:11.960Z,100472.53
2022-11-24T04:17:39.856Z,100469.03
2022-11-24T04:20:08.845Z,100473.44
2022-11-24T04:22:36.831Z,100469.94
2022-11-24T04:25:07.592Z,100476.06
2022-11-24T04:27:35.750Z,100473.44
2022-11-24T04:30:03.728Z,100475.19
2022-11-24T04:32:31.609Z,100483.03
2022-11-24T04:34:59.555Z,100483.94
2022-11-24T04:37:27.413Z,100488.28
2022-11-24T04:39:55.987Z,100483.03
2022-11-24T04:42:25.323Z,100489.19
2022-11-24T04:44:53.189Z,100486.56
2022-11-24T04:47:22.027Z,100488.28
2022-11-24T04:49:50.107Z,100485.66
2022-11-24T04:52:17.989Z,100487.34
2022-11-24T04:54:45.948Z,100493.53
2022-11-24T04:57:16.249Z,100501.34
2022-11-24T04:59:45.578Z,100504.84
2022-11-24T05:02:13.583Z,100505.69
2022-11-24T05:04:41.612Z,100512.72
2022-11-24T05:07:16.576Z,100523.22
2022-11-24T05:10:03.568Z,100523.22
2022-11-24T05:12:32.045Z,100524.94
2022-11-24T05:15:01.437Z,100528.47
2022-11-24T05:17:30.027Z,100531.97
2022-11-24T05:19:58.333Z,100537.22
2022-11-24T05:22:26.922Z,100544.22
2022-11-24T05:24:54.906Z,100537.22
2022-11-24T05:27:22.819Z,100545.09
2022-11-24T05:29:50.736Z,100540.78
2022-11-24T05:32:20.251Z,100549.47
2022-11-24T05:34:51.909Z,100551.19
2022-11-24T05:37:20.029Z,100555.53
2022-11-24T05:39:48.127Z,100554.59
2022-11-24T05:42:33.537Z,100561.53
2022-11-24T05:45:01.440Z,100564.03
2022-11-24T05:47:30.737Z,100558.81
2022-11-24T05:49:58.665Z,100571.06
2022-11-24T05:52:26.583Z,100573.69
2022-11-24T05:54:54.491Z,100570.25
2022-11-24T05:57:22.457Z,100579.81
2022-11-24T05:59:50.371Z,100578.00
2022-11-24T06:02:19.158Z,100576.25
2022-11-24T06:04:48.509Z,100575.31
2022-11-24T06:07:16.479Z,100577.06
2022-11-24T06:09:44.396Z,100577.06
2022-11-24T06:12:12.793Z,100571.81
2022-11-24T06:14:40.696Z,100572.69
2022-11-24T06:17:08.721Z,100586.72
2022-11-24T06:19:41.748Z,100591.97
2022-11-24T06:22:11.494Z,100598.16
2022-11-24T06:24:39.409Z,100598.16
2022-11-24T06:27:07.720Z,100597.28
2022-11-24T06:29:35.632Z,100605.22
2022-11-24T06:32:03.577Z,100603.50
2022-11-24T06:34:31.707Z,100607.03
2022-11-24T06:36:59.781Z,100622.78
2022-11-24T06:39:29.092Z,100624.50
2022-11-24T06:41:56.929Z,100621.06
2022-11-24T06:44:24.813Z,100626.31
2022-11-24T06:46:52.779Z,100629.81
2022-11-24T06:49:20.684Z,100625.53
2022-11-24T06:51:48.562Z,100634.34
2022-11-24T06:54:17.955Z,100638.72
2022-11-24T06:56:57.256Z,100640.53
2022-11-24T06:59:25.219Z,100636.16
2022-11-24T07:01:53.153Z,100648.41
2022-11-24T07:04:21.309Z,100651.03
2022-11-24T07:06:49.296Z,100649.31
2022-11-24T07:09:17.196Z,100644.91
2022-11-24T07:11:45.131Z,100654.56
2022-11-24T07:14:14.475Z,100655.41
2022-11-24T07:16:42.423Z,100666.72
2022-11-24T07:19:10.420Z,100664.97
2022-11-24T07:21:38.317Z,100664.97
2022-11-24T07:24:07.042Z,100670.22
2022-11-24T07:26:37.278Z,100681.56
2022-11-24T07:29:05.893Z,100676.31
2022-11-24T07:31:35.328Z,100683.28
2022-11-24T07:34:03.224Z,100685.03
2022-11-24T07:36:31.075Z,100696.47
2022-11-24T07:38:59.099Z,100695.56
2022-11-24T07:41:26.990Z,100703.44
2022-11-24T07:43:54.966Z,100706.97
2022-11-24T07:46:23.009Z,100711.34
2022-11-24T07:48:52.342Z,100717.47
2022-11-24T07:51:20.276Z,100716.59
2022-11-24T07:53:48.147Z,100716.66
2022-11-24T07:56:16.033Z,100721.03
2022-11-24T07:58:48.350Z,100723.63
2022-11-24T08:01:20.580Z,100718.38
2022-11-24T08:03:48.638Z,100728.00
2022-11-24T08:06:30.057Z,100736.69
2022-11-24T08:09:00.694Z,100737.63
2022-11-24T08:11:28.585Z,100738.50
2022-11-24T08:13:56.527Z,100744.56
2022-11-24T08:16:24.519Z,100743.75
2022-11-24T08:18:52.951Z,100740.19
2022-11-24T08:21:23.222Z,100746.25
2022-11-24T08:23:51.446Z,100747.16
2022-11-24T08:26:19.429Z,100747.16
2022-11-24T08:28:47.711Z,100749.78
2022-11-24T08:31:16.597Z,100752.41
2022-11-24T08:33:44.484Z,100749.78
2022-11-24T08:36:16.272Z,100748.88
2022-11-24T08:38:45.729Z,100749.75
2022-11-24T08:41:15.346Z,100755.84
2022-11-24T08:43:43.258Z,100762.84
2022-11-24T08:46:12.112Z,100761.94
2022-11-24T08:48:40.161Z,100770.69
2022-11-24T08:51:08.491Z,100768.91
2022-11-24T08:53:36.384Z,100772.41
2022-11-24T08:56:06.177Z,100781.13
2022-11-24T08:58:35.330Z,100778.50
2022-11-24T09:01:07.113Z,100788.13
2022-11-24T09:03:35.513Z,100779.31
2022-11-24T09:06:03.441Z,100785.38
2022-11-24T09:08:31.456Z,100781.88
2022-11-24T09:11:01.227Z,100779.25
2022-11-24T09:13:30.629Z,100775.75
2022-11-24T09:15:58.643Z,100788.00
2022-11-24T09:18:30.276Z,100773.16
2022-11-24T09:21:07.551Z,100781.03
2022-11-24T09:23:35.863Z,100785.38
2022-11-24T09:26:07.211Z,100786.25
2022-11-24T09:28:36.475Z,100791.50
2022-11-24T09:31:04.551Z,100794.13
2022-11-24T09:33:32.585Z,100803.72
2022-11-24T09:36:00.549Z,100797.56
2022-11-24T09:38:28.768Z,100797.56
2022-11-24T09:40:56.723Z,100809.81
2022-11-24T09:43:27.651Z,100797.50
2022-11-24T09:46:06.074Z,100804.53
2022-11-24T09:48:36.134Z,100806.25
2022-11-24T09:51:04.503Z,100807.09
2022-11-24T09:53:33.624Z,100808.88
2022-11-24T09:56:04.084Z,100815.84
2022-11-24T09:58:41.509Z,100808.84
2022-11-24T10:01:14.065Z,100821.00
2022-11-24T10:03:43.775Z,100827.94
2022-11-24T10:06:21.661Z,100827.06
2022-11-24T10:09:09.639Z,100827.91
2022-11-24T10:11:39.461Z,100821.75
2022-11-24T10:14:32.885Z,100833.97
2022-11-24T10:17:05.433Z,100832.19
2022-11-24T10:19:38.851Z,100833.91
2022-11-24T10:22:15.902Z,100839.94
2022-11-24T10:24:59.293Z,100843.44
2022-11-24T10:27:29.166Z,100844.25
2022-11-24T10:29:57.136Z,100846.00
2022-11-24T10:32:27.881Z,100844.22
2022-11-24T10:34:55.743Z,100840.69
2022-11-24T10:37:24.809Z,100838.91
2022-11-24T10:40:05.270Z,100839.72
2022-11-24T10:42:35.263Z,100848.44
2022-11-24T10:45:04.093Z,100847.53
2022-11-24T10:47:33.439Z,100847.53
2022-11-24T10:50:02.864Z,100850.13
2022-11-24T10:52:31.004Z,100847.47
2022-11-24T10:54:59.602Z,100857.94
2022-11-24T10:57:32.367Z,100855.28
2022-11-24T11:00:00.425Z,100852.56
2022-11-24T11:02:37.443Z,100849.94
2022-11-24T11:05:27.561Z,100857.75
2022-11-24T11:08:11.904Z,100854.19
2022-11-24T11:10:39.976Z,100863.66
2022-11-24T11:13:22.440Z,100859.13
2022-11-24T11:15:50.377Z,100864.38
2022-11-24T11:18:19.852Z,100862.66
2022-11-24T11:20:52.087Z,100873.25
2022-11-24T11:23:23.550Z,100872.41
2022-11-24T11:25:51.464Z,100882.06
2022-11-24T11:28:24.348Z,100884.69
2022-11-24T11:34:08.319Z,100890.88
2022-11-24T11:36:41.647Z,100897.91
2022-11-24T11:39:12.827Z,100890.88
2022-11-24T11:41:42.553Z,100901.41
2022-11-24T11:44:16.291Z,100907.50
2022-11-24T11:46:44.255Z,100911.91
2022-11-24T11:49:14.339Z,100905.78
2022-11-24T11:52:05.657Z,100908.41
2022-11-24T11:54:40.070Z,100911.88
2022-11-24T11:57:11.635Z,100916.22
2022-11-24T11:59:46.661Z,100917.97
2022-11-24T12:02:34.738Z,100920.59
2022-11-24T12:05:06.508Z,100916.22
2022-11-24T12:07:41.899Z,100917.91
2022-11-24T12:10:15.212Z,100911.69
2022-11-24T12:13:27.424Z,100918.59
2022-11-24T12:15:56.135Z,100922.88
2022-11-24T12:21:26.025Z,100939.38
2022-11-24T12:24:00.883Z,100940.16
2022-11-24T12:26:31.272Z,100946.28
2022-11-24T12:29:09.103Z,100947.94
2022-11-24T12:31:40.714Z,100947.94
2022-11-24T12:34:20.325Z,100954.06
2022-11-24T12:36:57.054Z,100950.56
2022-11-24T12:39:27.127Z,100941.78
2022-11-24T12:42:06.000Z,100954.00
2022-11-24T12:44:45.921Z,100945.22
2022-11-24T12:47:16.362Z,100947.88
2022-11-24T12:49:51.448Z,100956.63
2022-11-24T14:34:55.654Z,101056.28
2022-11-24T14:37:23.586Z,101059.81
2022-11-24T14:39:51.490Z,101063.31
2022-11-24T14:42:21.568Z,101063.34
2022-11-24T14:44:54.301Z,101065.94
2022-11-24T14:47:30.552Z,101067.66
2022-11-24T14:50:07.859Z,101052.81
2022-11-24T14:52:35.841Z,101060.69
2022-11-24T14:55:21.908Z,101064.19
2022-11-24T14:57:50.512Z,101068.66
2022-11-24T15:00:20.638Z,101074.81
2022-11-24T15:02:51.796Z,101079.22
2022-11-24T15:05:21.626Z,101088.00
2022-11-24T15:07:50.114Z,101093.31
2022-11-24T15:10:20.241Z,101081.06
2022-11-24T15:12:51.375Z,101079.34
2022-11-24T15:15:21.199Z,101083.72
2022-11-24T15:17:49.652Z,101080.28
2022-11-24T15:20:19.376Z,101083.78
2022-11-24T15:22:49.424Z,101082.09
2022-11-24T15:25:30.703Z,101084.75
2022-11-24T15:27:58.590Z,101092.66
2022-11-24T15:30:26.500Z,101102.34
2022-11-24T15:32:55.091Z,101105.84
2022-11-24T15:35:23.768Z,101115.50
2022-11-24T15:37:53.011Z,101112.06
2022-11-24T15:40:21.114Z,101111.19
2022-11-24T15:42:52.244Z,101113.00
2022-11-24T15:45:20.269Z,101112.13
2022-11-24T15:47:48.253Z,101106.91
2022-11-24T15:50:16.349Z,101112.16
2022-11-24T15:52:44.338Z,101111.38
2022-11-24T15:55:18.351Z,101113.13
2022-11-24T15:57:46.230Z,101108.78
2022-11-24T16:00:17.202Z,101107.06
2022-11-24T16:02:45.146Z,101114.97
2022-11-24T16:05:13.366Z,101121.97
2022-11-24T16:07:41.341Z,101113.25
2022-11-24T16:10:27.250Z,101115.03
2022-11-24T16:12:55.134Z,101114.19
2022-11-24T16:15:23.067Z,101118.59
2022-11-24T16:17:50.953Z,101116.88
2022-11-24T16:20:18.895Z,101125.66
2022-11-24T16:22:46.753Z,101128.31
2022-11-24T16:25:14.664Z,101135.31
2022-11-24T16:27:44.131Z,101133.59
2022-11-24T16:30:13.234Z,101125.75
2022-11-24T16:32:41.176Z,101137.13
2022-11-24T16:35:09.387Z,101137.19
2022-11-24T16:37:37.342Z,101134.56
2022-11-24T16:40:05.723Z,101135.47
2022-11-24T16:42:33.757Z,101148.63
2022-11-24T16:45:03.320Z,101156.50
2022-11-24T16:47:31.524Z,101156.53
2022-11-24T16:49:59.410Z,101167.94
2022-11-24T16:52:27.395Z,101171.47
2022-11-24T16:54:55.270Z,101179.34
2022-11-24T16:57:23.223Z,101182.84
2022-11-24T16:59:51.155Z,101177.66
2022-11-24T17:02:20.479Z,101186.38
2022-11-24T17:04:49.787Z,101183.78
2022-11-24T17:07:17.678Z,101181.16
2022-11-24T17:09:45.654Z,101184.66
2022-11-24T17:12:13.612Z,101183.78
2022-11-24T17:14:41.487Z,101182.94
2022-11-24T17:17:09.430Z,101183.81
2022-11-24T17:19:38.830Z,101185.56
2022-11-24T17:22:06.706Z,101186.44
2022-11-24T17:24:34.813Z,101193.44
2022-11-24T17:27:02.953Z,101193.44
2022-11-24T17:29:31.285Z,101209.19
2022-11-24T17:31:59.261Z,101196.06
2022-11-24T17:34:27.173Z,101195.16
2022-11-24T17:36:56.479Z,101201.28
2022-11-24T17:39:26.595Z,101203.03
2022-11-24T17:41:54.468Z,101199.50
2022-11-24T17:44:22.443Z,101204.75
2022-11-24T17:46:50.294Z,101213.53
2022-11-24T17:49:18.394Z,101210.00
2022-11-24T17:51:50.391Z,101209.09
2022-11-24T17:57:07.631Z,101213.38
2022-11-24T17:59:35.504Z,101202.88
2022-11-24T18:02:03.486Z,101204.56
2022-11-24T18:04:31.459Z,101209.78
2022-11-24T18:06:59.360Z,101205.38
2022-11-24T18:09:28.702Z,101210.66
2022-11-24T18:11:56.675Z,101215.00
2022-11-24T18:14:24.685Z,101223.69
2022-11-24T18:16:52.671Z,101221.94
2022-11-24T18:19:20.595Z,101219.28
2022-11-24T18:21:48.458Z,101227.13
2022-11-24T18:24:19.741Z,101227.13
2022-11-24T18:26:53.124Z,101227.06
2022-11-24T18:29:21.958Z,101223.50
2022-11-24T18:31:49.982Z,101233.06
2022-11-24T18:34:17.872Z,101229.56
2022-11-24T18:36:47.535Z,101233.00
2022-11-24T18:39:17.938Z,101233.91
2022-11-24T18:41:45.833Z,101226.91
2022-11-24T18:44:15.199Z,101231.28
2022-11-24T18:46:43.307Z,101233.91
2022-11-24T18:49:11.241Z,101240.94
2022-11-24T18:51:39.231Z,101233.00
2022-11-24T18:54:07.224Z,101234.72
2022-11-24T18:56:35.371Z,101233.88
2022-11-24T18:59:03.459Z,101236.50
2022-11-24T19:01:32.819Z,101234.69
2022-11-24T19:04:01.822Z,101232.06
2022-11-24T19:06:32.342Z,101234.72
2022-11-24T19:09:01.159Z,101232.09
2022-11-24T19:11:29.746Z,101231.25
2022-11-24T19:13:57.665Z,101231.28
2022-11-24T19:16:25.737Z,101229.56
2022-11-24T19:18:57.254Z,101233.06
2022-11-24T19:21:25.186Z,101226.09
2022-11-24T19:23:53.189Z,101227.00
2022-11-24T19:26:21.132Z,101229.66
2022-11-24T19:28:49.054Z,101228.84
2022-11-24T19:31:17.800Z,101233.22
2022-11-24T19:33:45.878Z,101227.09
2022-11-24T19:36:16.118Z,101230.63
2022-11-24T19:38:44.447Z,101239.41
2022-11-24T19:41:15.572Z,101249.94
2022-11-24T19:43:43.635Z,101245.59
2022-11-24T19:46:12.510Z,101241.22
2022-11-24T19:48:41.185Z,101249.97
2022-11-24T19:51:09.714Z,101250.88
2022-11-24T19:53:39.049Z,101245.72
2022-11-24T19:56:07.499Z,101250.09
2022-11-24T19:58:35.511Z,101251.03
2022-11-24T20:01:09.572Z,101251.03
2022-11-24T20:03:37.608Z,101252.78
2022-11-24T20:06:05.882Z,101245.81
2022-11-24T20:08:34.184Z,101248.47
2022-11-24T20:11:07.198Z,101251.13
2022-11-24T20:13:35.461Z,101253.75
2022-11-24T20:16:04.543Z,101259.06
2022-11-24T20:18:35.230Z,101267.81
2022-11-24T20:21:05.794Z,101263.44
2022-11-24T20:23:33.764Z,101266.97
2022-11-24T20:26:07.112Z,101263.44
2022-11-24T20:28:35.301Z,101260.78
2022-11-24T20:31:03.391Z,101257.25
2022-11-24T20:33:31.462Z,101259.84
2022-11-24T20:36:03.690Z,101261.56
2022-11-24T20:38:31.604Z,101267.69
2022-11-24T20:41:08.756Z,101265.88
2022-11-24T20:43:38.660Z,101278.97
2022-11-24T20:46:07.687Z,101275.44
2022-11-24T20:48:35.769Z,101277.16
2022-11-24T20:51:04.640Z,101279.75
2022-11-24T20:53:32.504Z,101294.59
2022-11-24T20:56:06.054Z,101290.22
2022-11-24T20:58:34.536Z,101294.59
2022-11-24T21:01:06.336Z,101305.09
2022-11-24T21:03:42.873Z,101305.09
2022-11-24T21:06:11.674Z,101312.97
2022-11-24T21:08:40.247Z,101305.09
2022-11-24T21:11:08.497Z,101309.50
2022-11-24T21:13:36.679Z,101314.75
2022-11-24T21:16:13.915Z,101309.50
2022-11-24T21:18:42.003Z,101308.63
2022-11-24T21:21:09.927Z,101313.88
2022-11-24T21:23:37.858Z,101316.47
2022-11-24T21:26:09.072Z,101325.19
2022-11-24T21:28:39.678Z,101318.19
2022-11-24T21:31:08.914Z,101320.81
2022-11-24T21:33:42.411Z,101324.34
2022-11-24T21:36:10.931Z,101317.31
2022-11-24T21:38:39.034Z,101317.31
2022-11-24T21:41:08.217Z,101324.31
2022-11-24T21:43:36.226Z,101322.53
2022-11-24T21:46:08.164Z,101328.69
2022-11-24T21:48:36.711Z,101326.94
2022-11-24T21:51:07.042Z,101323.44
2022-11-24T21:53:36.735Z,101330.44
2022-11-24T21:56:05.631Z,101331.34
2022-11-24T21:58:33.764Z,101328.69
2022-11-24T22:01:05.291Z,101330.41
2022-11-24T22:03:33.300Z,101322.53
2022-11-24T22:06:01.542Z,101323.44
2022-11-24T22:08:31.116Z,101325.16
2022-11-24T22:11:02.202Z,101321.69
2022-11-24T22:13:33.049Z,101323.47
2022-11-24T22:16:04.674Z,101319.94
2022-11-24T22:18:34.078Z,101310.34
2022-11-24T22:21:02.772Z,101315.59
2022-11-24T22:23:32.427Z,101317.41
2022-11-24T22:26:03.810Z,101305.13
2022-11-24T22:28:33.226Z,101312.19
2022-11-24T22:31:04.943Z,101314.81
2022-11-24T22:33:33.016Z,101313.09
2022-11-24T22:36:01.101Z,101314.03
2022-11-24T22:38:29.164Z,101310.53
2022-11-24T22:41:05.583Z,101304.38
2022-11-24T22:43:33.704Z,101307.91
2022-11-24T22:46:05.699Z,101304.38
2022-11-24T22:48:36.750Z,101311.44
2022-11-24T22:51:05.483Z,101305.28
2022-11-24T22:53:33.543Z,101298.28
2022-11-24T22:56:08.173Z,101299.13
2022-11-24T22:58:36.214Z,101297.38
2022-11-24T23:01:07.983Z,101302.66
2022-11-24T23:03:36.129Z,101300.91
2022-11-24T23:06:04.268Z,101306.13
2022-11-24T23:08:33.484Z,101301.72
2022-11-24T23:11:02.076Z,101305.22
2022-11-24T23:13:31.612Z,101305.28
2022-11-24T23:16:03.099Z,101296.50
2022-11-24T23:18:31.298Z,101297.38
2022-11-24T23:21:05.343Z,101299.19
2022-11-24T23:23:33.289Z,101301.75
2022-11-24T23:26:01.559Z,101295.66
2022-11-24T23:28:29.587Z,101296.56
2022-11-24T23:31:02.944Z,101297.44
2022-11-24T23:33:33.659Z,101307.06
2022-11-24T23:36:02.389Z,101299.19
2022-11-24T23:38:32.496Z,101303.59
2022-11-24T23:41:04.061Z,101296.63
2022-11-24T23:43:35.700Z,101296.63
2022-11-24T23:46:05.150Z,101288.75
2022-11-24T23:48:33.203Z,101287.88
2022-11-24T23:51:05.174Z,101281.78
2022-11-24T23:53:33.374Z,101276.56
2022-11-24T23:56:01.343Z,101271.31
2022-11-24T23:58:29.302Z,101273.94
